Time;durP1;ratioP1;P1;durP2;ratioP2;P2;SDS_P1;SDS_P2;PMS_P1;PMS_P2;Temp;Humidity;BMP_temperature;BMP_pressure;BME280_temperature;BME280_humidity;BME280_pressure;Samples;Min_cycle;Max_cycle;Signal;HPM_P1;HPM_P2
2022/11/25 00:00:52;;;;;;;10.13;3.07;;;;;;;;;;4996219;28;20176;-80
2022/11/25 00:03:17;;;;;;;8.57;3.47;;;;;;;;;;4995735;28;20180;-81
2022/11/25 00:05:42;;;;;;;10.33;2.47;;;;;;;;;;4994963;28;20184;-80
2022/11/25 00:08:07;;;;;;;9.43;2.93;;;;;;;;;;4995900;28;20176;-80
2022/11/25 00:10:32;;;;;;;11.90;3.57;;;;;;;;;;4992014;28;20278;-81
2022/11/25 00:12:58;;;;;;;8.83;3.23;;;;;;;;;;4992737;28;20594;-81
2022/11/25 00:15:23;;;;;;;13.83;3.07;;;;;;;;;;4993307;28;20180;-81
2022/11/25 00:17:48;;;;;;;11.30;3.10;;;;;;;;;;4993423;28;20171;-81
2022/11/25 00:20:13;;;;;;;10.00;2.77;;;;;;;;;;4996623;28;20229;-81
2022/11/25 00:22:38;;;;;;;11.33;2.77;;;;;;;;;;4996925;28;20172;-80
2022/11/25 00:25:04;;;;;;;13.23;2.97;;;;;;;;;;5000001;28;20190;-81
2022/11/25 00:27:29;;;;;;;12.93;3.60;;;;;;;;;;5000751;28;20180;-81
2022/11/25 00:29:54;;;;;;;11.13;2.97;;;;;;;;;;4996369;28;20214;-81
2022/11/25 00:32:19;;;;;;;17.93;2.83;;;;;;;;;;4983189;28;20183;-81
2022/11/25 00:34:45;;;;;;;8.90;2.60;;;;;;;;;;4984211;28;20175;-81
2022/11/25 00:37:10;;;;;;;11.03;2.70;;;;;;;;;;5001197;28;20180;-81
2022/11/25 00:39:35;;;;;;;12.87;2.87;;;;;;;;;;5001200;28;20203;-81
2022/11/25 00:44:44;;;;;;;13.70;2.93;;;;;;;;;;5000925;28;20246;-82
2022/11/25 00:47:11;;;;;;;15.77;3.00;;;;;;;;;;4983578;28;20187;-82
2022/11/25 00:49:37;;;;;;;9.10;2.90;;;;;;;;;;5001846;28;20221;-81
2022/11/25 00:52:02;;;;;;;16.47;3.03;;;;;;;;;;4984211;28;20211;-82
2022/11/25 00:54:28;;;;;;;12.43;3.53;;;;;;;;;;4999728;28;20258;-81
2022/11/25 00:56:53;;;;;;;11.23;2.93;;;;;;;;;;5002904;28;20175;-81
2022/11/25 00:59:18;;;;;;;12.57;3.00;;;;;;;;;;5001194;28;20283;-81
2022/11/25 01:01:43;;;;;;;17.83;2.70;;;;;;;;;;4998847;28;20195;-82
2022/11/25 01:04:09;;;;;;;11.87;2.67;;;;;;;;;;4999628;28;20164;-82
2022/11/25 01:06:35;;;;;;;13.47;3.27;;;;;;;;;;4995346;28;20642;-81
2022/11/25 01:09:00;;;;;;;10.03;2.83;;;;;;;;;;4998810;28;20289;-81
2022/11/25 01:11:25;;;;;;;12.07;3.33;;;;;;;;;;5005232;28;20211;-81
2022/11/25 01:13:53;;;;;;;7.97;2.63;;;;;;;;;;5000432;28;20172;-81
2022/11/25 01:16:18;;;;;;;9.00;2.80;;;;;;;;;;4996585;28;20190;-82
2022/11/25 01:18:44;;;;;;;10.60;3.00;;;;;;;;;;4984062;28;20192;-82
2022/11/25 01:21:11;;;;;;;15.53;2.67;;;;;;;;;;4995482;28;20184;-82
2022/11/25 01:23:36;;;;;;;13.40;4.00;;;;;;;;;;4996449;28;20218;-82
2022/11/25 01:26:02;;;;;;;11.40;2.50;;;;;;;;;;4980518;28;20187;-82
2022/11/25 01:28:28;;;;;;;8.60;2.77;;;;;;;;;;4980167;28;20196;-80
2022/11/25 01:31:00;;;;;;;16.23;4.40;;;;;;;;;;4998097;28;20547;-81
2022/11/25 01:33:25;;;;;;;10.40;2.80;;;;;;;;;;5000462;28;20221;-81
2022/11/25 01:35:50;;;;;;;11.20;2.60;;;;;;;;;;5003791;28;20210;-82
2022/11/25 01:38:16;;;;;;;14.83;3.10;;;;;;;;;;5000240;28;20180;-81
2022/11/25 01:40:41;;;;;;;14.77;3.00;;;;;;;;;;4979496;28;20186;-81
2022/11/25 01:43:12;;;;;;;8.53;3.10;;;;;;;;;;5004089;28;20180;-81
2022/11/25 01:45:37;;;;;;;13.77;3.50;;;;;;;;;;4996603;28;20202;-81
2022/11/25 01:48:11;;;;;;;11.27;2.73;;;;;;;;;;4980028;28;20176;-81
2022/11/25 01:50:36;;;;;;;16.43;3.90;;;;;;;;;;4994708;28;20207;-81
2022/11/25 01:53:03;;;;;;;15.27;4.03;;;;;;;;;;4980283;28;20676;-81
2022/11/25 01:55:31;;;;;;;14.03;3.07;;;;;;;;;;4998626;28;20684;-81
2022/11/25 01:57:58;;;;;;;13.73;3.47;;;;;;;;;;4996767;28;20181;-81
2022/11/25 02:00:24;;;;;;;11.93;3.07;;;;;;;;;;4996163;28;20351;-81
2022/11/25 02:02:51;;;;;;;13.00;3.80;;;;;;;;;;4997376;28;20199;-81
2022/11/25 02:05:18;;;;;;;15.73;3.27;;;;;;;;;;4997411;28;20175;-82
2022/11/25 02:07:45;;;;;;;22.73;4.87;;;;;;;;;;4982720;28;20195;-81
2022/11/25 02:10:13;;;;;;;11.80;3.37;;;;;;;;;;4993601;28;20613;-81
2022/11/25 02:12:39;;;;;;;10.03;3.37;;;;;;;;;;4978680;28;20211;-81
2022/11/25 02:15:05;;;;;;;17.80;3.30;;;;;;;;;;4979379;28;20203;-81
2022/11/25 02:17:30;;;;;;;11.10;3.20;;;;;;;;;;4997716;28;20179;-81
2022/11/25 02:19:55;;;;;;;12.53;2.90;;;;;;;;;;4997629;28;20195;-81
2022/11/25 02:22:24;;;;;;;13.60;3.90;;;;;;;;;;5002041;28;20190;-81
2022/11/25 02:24:53;;;;;;;11.93;3.07;;;;;;;;;;5004692;28;20175;-82
2022/11/25 02:27:19;;;;;;;14.27;3.40;;;;;;;;;;5003424;28;20179;-81
2022/11/25 02:29:44;;;;;;;11.87;3.37;;;;;;;;;;4984700;28;21262;-81
2022/11/25 02:32:09;;;;;;;13.07;3.47;;;;;;;;;;5000497;28;20210;-81
2022/11/25 02:34:35;;;;;;;16.27;3.67;;;;;;;;;;5000317;28;20735;-81
2022/11/25 02:37:00;;;;;;;13.60;4.17;;;;;;;;;;4999369;28;20313;-81
2022/11/25 02:39:26;;;;;;;15.40;4.20;;;;;;;;;;4980268;28;20226;-81
2022/11/25 02:41:55;;;;;;;19.23;4.57;;;;;;;;;;4993042;28;20191;-80
2022/11/25 02:44:20;;;;;;;14.43;4.20;;;;;;;;;;4985039;28;20258;-80
2022/11/25 02:46:46;;;;;;;16.67;3.47;;;;;;;;;;5000654;28;20194;-80
2022/11/25 02:49:11;;;;;;;12.43;4.23;;;;;;;;;;5004502;28;20199;-80
2022/11/25 02:51:37;;;;;;;12.20;3.77;;;;;;;;;;5008259;28;20258;-80
2022/11/25 02:54:02;;;;;;;9.93;3.60;;;;;;;;;;4979232;28;20714;-79
2022/11/25 02:56:29;;;;;;;12.40;3.00;;;;;;;;;;5001529;28;20278;-80
2022/11/25 02:58:54;;;;;;;11.40;3.53;;;;;;;;;;5002476;28;20211;-79
2022/11/25 03:01:19;;;;;;;11.83;3.67;;;;;;;;;;4996202;28;20658;-80
2022/11/25 03:03:45;;;;;;;11.23;2.90;;;;;;;;;;4995761;28;20267;-80
2022/11/25 03:06:10;;;;;;;10.77;3.13;;;;;;;;;;4993081;28;20183;-80
2022/11/25 03:08:35;;;;;;;15.27;3.60;;;;;;;;;;4992106;28;20690;-80
2022/11/25 03:11:01;;;;;;;13.90;4.13;;;;;;;;;;4984113;28;20218;-80
2022/11/25 03:13:26;;;;;;;12.40;3.70;;;;;;;;;;4995198;28;20183;-80
2022/11/25 03:15:51;;;;;;;16.53;4.63;;;;;;;;;;4993477;28;20180;-80
2022/11/25 03:18:17;;;;;;;11.07;3.67;;;;;;;;;;4989112;28;20190;-79
2022/11/25 03:20:42;;;;;;;11.93;4.17;;;;;;;;;;4995139;28;20180;-81
2022/11/25 03:23:07;;;;;;;10.20;2.97;;;;;;;;;;4994255;28;20724;-80
2022/11/25 03:25:33;;;;;;;7.87;3.40;;;;;;;;;;4976018;28;20260;-80
2022/11/25 03:27:58;;;;;;;12.83;3.90;;;;;;;;;;4995381;28;20176;-80
2022/11/25 03:30:25;;;;;;;12.00;3.17;;;;;;;;;;4995718;28;20219;-80
2022/11/25 03:32:51;;;;;;;10.73;3.40;;;;;;;;;;4976367;28;20168;-79
2022/11/25 03:35:16;;;;;;;7.27;2.60;;;;;;;;;;4993719;28;20672;-80
2022/11/25 03:37:41;;;;;;;9.33;2.57;;;;;;;;;;4988878;28;20617;-80
2022/11/25 03:40:07;;;;;;;8.97;2.77;;;;;;;;;;4990083;28;20203;-80
2022/11/25 03:42:33;;;;;;;9.80;2.53;;;;;;;;;;4990361;28;20180;-80
2022/11/25 03:44:58;;;;;;;7.90;2.20;;;;;;;;;;4988625;28;20183;-80
2022/11/25 03:47:23;;;;;;;4.57;1.87;;;;;;;;;;4976023;28;20195;-80
2022/11/25 03:49:48;;;;;;;2.90;1.53;;;;;;;;;;4992146;28;20221;-80
2022/11/25 03:52:14;;;;;;;8.17;2.40;;;;;;;;;;4991456;28;20236;-79
2022/11/25 03:54:39;;;;;;;3.00;1.27;;;;;;;;;;4994161;28;20650;-80
2022/11/25 03:57:04;;;;;;;4.63;2.20;;;;;;;;;;4986844;28;20624;-80
2022/11/25 03:59:29;;;;;;;3.17;1.60;;;;;;;;;;4990516;28;20317;-80
2022/11/25 04:01:54;;;;;;;4.63;1.37;;;;;;;;;;4994100;28;20191;-80
2022/11/25 04:04:20;;;;;;;2.27;0.90;;;;;;;;;;4998058;28;20175;-80
2022/11/25 04:06:45;;;;;;;4.97;1.20;;;;;;;;;;4996948;28;20658;-80
2022/11/25 04:09:13;;;;;;;2.80;1.30;;;;;;;;;;4997007;28;20195;-79
2022/11/25 04:14:22;;;;;;;3.77;1.30;;;;;;;;;;5001651;28;20680;-80
2022/11/25 04:16:48;;;;;;;4.10;1.63;;;;;;;;;;4990359;28;20175;-79
2022/11/25 04:19:13;;;;;;;3.87;1.20;;;;;;;;;;4999522;28;20541;-80
2022/11/25 04:21:38;;;;;;;6.50;1.33;;;;;;;;;;4979016;28;20890;-79
2022/11/25 04:24:03;;;;;;;2.03;1.17;;;;;;;;;;5000930;28;20199;-80
2022/11/25 04:26:29;;;;;;;2.53;1.03;;;;;;;;;;4990974;28;20666;-80
2022/11/25 04:28:54;;;;;;;3.27;1.60;;;;;;;;;;4997677;28;20203;-80
2022/11/25 04:31:19;;;;;;;4.30;1.40;;;;;;;;;;4997776;28;20203;-79
2022/11/25 04:33:45;;;;;;;4.30;1.33;;;;;;;;;;4981063;28;20235;-79
2022/11/25 04:36:10;;;;;;;2.77;1.33;;;;;;;;;;4999619;28;20714;-79
2022/11/25 04:38:35;;;;;;;2.50;1.43;;;;;;;;;;4999086;28;20206;-79
2022/11/25 04:41:00;;;;;;;3.77;1.47;;;;;;;;;;4979271;28;20196;-79
2022/11/25 04:43:25;;;;;;;2.80;1.13;;;;;;;;;;4984851;28;20218;-79
2022/11/25 04:45:51;;;;;;;3.67;1.60;;;;;;;;;;4981835;28;20192;-79
2022/11/25 04:48:16;;;;;;;4.43;1.60;;;;;;;;;;4997892;28;20207;-79
2022/11/25 04:50:42;;;;;;;5.73;1.33;;;;;;;;;;4997559;28;20559;-79
2022/11/25 04:53:07;;;;;;;6.43;1.87;;;;;;;;;;4996765;28;20183;-79
2022/11/25 04:55:32;;;;;;;5.23;1.23;;;;;;;;;;4982637;28;20606;-79
2022/11/25 04:57:57;;;;;;;2.63;1.33;;;;;;;;;;4982367;28;20262;-80
2022/11/25 05:00:23;;;;;;;5.57;1.40;;;;;;;;;;4995648;28;20639;-79
2022/11/25 05:02:48;;;;;;;3.57;1.80;;;;;;;;;;4997886;28;20208;-79
2022/11/25 05:05:13;;;;;;;6.30;1.43;;;;;;;;;;4993505;28;20559;-79
2022/11/25 05:07:38;;;;;;;6.03;1.13;;;;;;;;;;4997214;28;20184;-79
2022/11/25 05:10:04;;;;;;;3.70;1.23;;;;;;;;;;5000750;28;20211;-80
2022/11/25 05:12:29;;;;;;;2.60;1.10;;;;;;;;;;4998503;28;20182;-79
2022/11/25 05:14:55;;;;;;;4.17;1.20;;;;;;;;;;4987558;28;20191;-79
2022/11/25 05:17:22;;;;;;;3.40;2.07;;;;;;;;;;4980823;28;20180;-79
2022/11/25 05:19:47;;;;;;;3.17;0.93;;;;;;;;;;4975744;28;20310;-78
2022/11/25 05:22:14;;;;;;;3.90;1.00;;;;;;;;;;4995307;28;20229;-79
2022/11/25 05:24:39;;;;;;;3.10;1.17;;;;;;;;;;4997775;28;20175;-79
2022/11/25 05:27:05;;;;;;;7.23;1.40;;;;;;;;;;4996050;28;20206;-79
2022/11/25 05:29:30;;;;;;;4.43;1.20;;;;;;;;;;4982069;28;20270;-78
2022/11/25 05:31:55;;;;;;;6.77;1.43;;;;;;;;;;4999970;28;20274;-81
2022/11/25 05:34:20;;;;;;;3.00;1.73;;;;;;;;;;4982502;28;20183;-79
2022/11/25 05:36:45;;;;;;;1.73;1.00;;;;;;;;;;4998080;28;20183;-79
2022/11/25 05:39:11;;;;;;;2.83;1.10;;;;;;;;;;4980966;28;20200;-78
2022/11/25 05:41:36;;;;;;;2.93;1.43;;;;;;;;;;4996625;28;20653;-79
2022/11/25 05:44:01;;;;;;;2.67;1.37;;;;;;;;;;4978358;28;20211;-78
2022/11/25 05:46:26;;;;;;;4.93;1.27;;;;;;;;;;4997247;28;20178;-79
2022/11/25 05:48:53;;;;;;;3.63;1.53;;;;;;;;;;4995712;28;20696;-79
2022/11/25 05:51:18;;;;;;;4.37;1.37;;;;;;;;;;4997179;28;20203;-79
2022/11/25 05:53:43;;;;;;;3.40;1.33;;;;;;;;;;4994186;28;20177;-79
2022/11/25 05:56:08;;;;;;;3.23;1.60;;;;;;;;;;4979493;28;20198;-81
2022/11/25 05:58:34;;;;;;;4.70;1.70;;;;;;;;;;4994350;28;20211;-81
2022/11/25 06:00:59;;;;;;;6.90;2.50;;;;;;;;;;4994431;28;20225;-80
2022/11/25 06:03:25;;;;;;;2.70;1.60;;;;;;;;;;4995152;28;20179;-80
2022/11/25 06:05:50;;;;;;;3.20;1.97;;;;;;;;;;4994350;28;20184;-80
2022/11/25 06:08:15;;;;;;;2.60;1.67;;;;;;;;;;4995758;28;20185;-80
2022/11/25 06:10:41;;;;;;;3.57;1.60;;;;;;;;;;4997775;28;20202;-79
2022/11/25 06:13:06;;;;;;;3.37;2.10;;;;;;;;;;5000787;28;20186;-79
2022/11/25 06:15:32;;;;;;;4.17;2.07;;;;;;;;;;4997372;28;20194;-79
2022/11/25 06:17:57;;;;;;;7.07;2.30;;;;;;;;;;4972736;28;20220;-79
2022/11/25 06:20:22;;;;;;;7.13;2.47;;;;;;;;;;4992908;28;20258;-80
2022/11/25 06:22:47;;;;;;;5.03;2.20;;;;;;;;;;4995966;28;20655;-80
2022/11/25 06:25:12;;;;;;;5.43;3.83;;;;;;;;;;4975106;28;20226;-80
2022/11/25 06:27:38;;;;;;;5.87;2.20;;;;;;;;;;4975821;28;20188;-80
2022/11/25 06:30:03;;;;;;;5.47;2.37;;;;;;;;;;4992825;28;20294;-80
2022/11/25 06:32:28;;;;;;;6.13;2.43;;;;;;;;;;4975025;28;20187;-79
2022/11/25 06:34:54;;;;;;;10.90;3.43;;;;;;;;;;4995270;28;20262;-79
2022/11/25 06:37:19;;;;;;;4.93;2.83;;;;;;;;;;4976361;28;20697;-79
2022/11/25 06:39:44;;;;;;;6.27;2.87;;;;;;;;;;4975912;28;20199;-80
2022/11/25 06:42:10;;;;;;;6.03;2.73;;;;;;;;;;4994666;28;20713;-79
2022/11/25 06:44:35;;;;;;;5.97;2.97;;;;;;;;;;4992903;28;20176;-80
2022/11/25 06:47:00;;;;;;;5.93;2.73;;;;;;;;;;4993577;28;20195;-80
2022/11/25 06:49:25;;;;;;;4.63;2.90;;;;;;;;;;4993300;28;20306;-80
2022/11/25 06:51:50;;;;;;;9.87;3.13;;;;;;;;;;4974013;28;20192;-80
2022/11/25 06:54:16;;;;;;;5.97;2.83;;;;;;;;;;4993870;28;20192;-80
2022/11/25 06:56:41;;;;;;;9.27;3.87;;;;;;;;;;4990273;28;20179;-80
2022/11/25 06:59:06;;;;;;;5.87;2.93;;;;;;;;;;4976099;28;20225;-80
2022/11/25 07:01:32;;;;;;;9.80;3.43;;;;;;;;;;4968235;28;20191;-80
2022/11/25 07:03:58;;;;;;;5.40;3.13;;;;;;;;;;4994966;28;20191;-80
2022/11/25 07:06:23;;;;;;;10.43;3.37;;;;;;;;;;4990558;28;20183;-79
2022/11/25 07:08:49;;;;;;;6.30;3.70;;;;;;;;;;4975086;28;20202;-80
2022/11/25 07:11:25;;;;;;;9.37;3.77;;;;;;;;;;4992100;28;20337;-80
2022/11/25 07:13:51;;;;;;;6.50;3.30;;;;;;;;;;4968594;28;20175;-80
2022/11/25 07:16:16;;;;;;;10.23;4.23;;;;;;;;;;4991769;28;20214;-80
2022/11/25 07:18:42;;;;;;;6.47;3.43;;;;;;;;;;4991714;28;20268;-80
2022/11/25 07:21:11;;;;;;;9.47;3.90;;;;;;;;;;4974313;28;20209;-80
2022/11/25 07:23:37;;;;;;;7.93;4.10;;;;;;;;;;4993890;28;20319;-80
2022/11/25 07:26:06;;;;;;;7.17;3.97;;;;;;;;;;4983184;28;20211;-80
2022/11/25 07:28:32;;;;;;;7.17;4.07;;;;;;;;;;4990472;28;20210;-79
2022/11/25 07:31:05;;;;;;;6.13;3.57;;;;;;;;;;4991889;28;20207;-79
2022/11/25 07:33:30;;;;;;;7.23;3.67;;;;;;;;;;5000283;28;20203;-79
2022/11/25 07:35:55;;;;;;;9.77;4.23;;;;;;;;;;5000631;28;20530;-79
2022/11/25 07:38:20;;;;;;;10.03;4.00;;;;;;;;;;5001189;28;20226;-79
2022/11/25 07:40:45;;;;;;;12.50;4.43;;;;;;;;;;4995623;28;20202;-79
2022/11/25 07:43:10;;;;;;;11.50;4.10;;;;;;;;;;5000407;28;20267;-80
2022/11/25 07:45:36;;;;;;;9.40;4.80;;;;;;;;;;4990508;28;20183;-80
2022/11/25 07:48:01;;;;;;;9.77;4.60;;;;;;;;;;4992951;28;20298;-80
2022/11/25 07:50:27;;;;;;;11.17;5.47;;;;;;;;;;4995950;28;20250;-80
2022/11/25 07:52:52;;;;;;;9.67;4.40;;;;;;;;;;4996350;28;20634;-80
2022/11/25 07:55:17;;;;;;;7.97;4.93;;;;;;;;;;4991941;28;20965;-80
2022/11/25 07:57:43;;;;;;;9.10;4.80;;;;;;;;;;5000329;28;20660;-80
2022/11/25 08:00:08;;;;;;;14.00;5.50;;;;;;;;;;4977968;28;20230;-79
2022/11/25 08:02:33;;;;;;;11.97;5.17;;;;;;;;;;5000449;28;20230;-80
2022/11/25 08:04:58;;;;;;;12.60;4.53;;;;;;;;;;4989630;28;20545;-79
2022/11/25 08:07:24;;;;;;;8.33;4.63;;;;;;;;;;5004113;28;20183;-79
2022/11/25 08:09:50;;;;;;;9.33;4.37;;;;;;;;;;4998459;28;20230;-80
2022/11/25 08:12:15;;;;;;;7.17;4.23;;;;;;;;;;5000786;28;20176;-80
2022/11/25 08:14:41;;;;;;;9.10;4.40;;;;;;;;;;4995262;28;20174;-79
2022/11/25 08:17:06;;;;;;;11.63;5.20;;;;;;;;;;4991733;28;20184;-79
2022/11/25 08:19:32;;;;;;;10.07;5.13;;;;;;;;;;4987510;28;20503;-79
2022/11/25 08:21:57;;;;;;;14.83;5.43;;;;;;;;;;4993013;28;20825;-80
2022/11/25 08:24:22;;;;;;;10.70;5.73;;;;;;;;;;4995681;28;20191;-80
2022/11/25 08:26:48;;;;;;;9.37;5.03;;;;;;;;;;4991580;28;20176;-80
2022/11/25 08:29:14;;;;;;;10.20;4.90;;;;;;;;;;4996744;28;20243;-79
2022/11/25 08:31:39;;;;;;;7.73;4.17;;;;;;;;;;4993341;28;20234;-80
2022/11/25 08:34:05;;;;;;;11.97;4.83;;;;;;;;;;4993490;28;20215;-80
2022/11/25 08:36:32;;;;;;;8.67;4.20;;;;;;;;;;4977299;28;20692;-79
2022/11/25 08:38:58;;;;;;;12.10;5.30;;;;;;;;;;4980779;28;20199;-79
2022/11/25 08:41:25;;;;;;;10.83;5.00;;;;;;;;;;4996434;28;20183;-79
2022/11/25 08:43:50;;;;;;;8.73;4.63;;;;;;;;;;4977907;28;20179;-80
2022/11/25 08:46:18;;;;;;;9.80;4.30;;;;;;;;;;4979369;28;20191;-80
2022/11/25 08:48:43;;;;;;;8.80;3.80;;;;;;;;;;4997124;28;20199;-80
2022/11/25 08:51:10;;;;;;;10.63;4.40;;;;;;;;;;4991824;28;20589;-80
2022/11/25 08:53:35;;;;;;;10.30;5.40;;;;;;;;;;4994360;28;20187;-80
2022/11/25 08:56:00;;;;;;;10.17;4.80;;;;;;;;;;4977460;28;20211;-80
2022/11/25 08:58:26;;;;;;;9.67;4.20;;;;;;;;;;4993829;28;20188;-80
2022/11/25 09:00:51;;;;;;;8.03;3.77;;;;;;;;;;4991044;28;20226;-80
2022/11/25 09:03:16;;;;;;;9.87;4.10;;;;;;;;;;4998767;28;20180;-80
2022/11/25 09:05:42;;;;;;;14.13;5.43;;;;;;;;;;4998733;28;20218;-80
2022/11/25 09:08:07;;;;;;;11.00;4.40;;;;;;;;;;4977896;28;20593;-80
2022/11/25 09:10:33;;;;;;;9.67;4.60;;;;;;;;;;4996495;28;20203;-80
2022/11/25 09:12:59;;;;;;;14.83;4.37;;;;;;;;;;4992031;28;20211;-80
2022/11/25 09:15:24;;;;;;;10.50;4.27;;;;;;;;;;4981195;28;20182;-80
2022/11/25 09:17:56;;;;;;;6.97;3.43;;;;;;;;;;4993800;28;20176;-80
2022/11/25 09:20:21;;;;;;;8.53;3.80;;;;;;;;;;4992717;28;20210;-80
2022/11/25 09:22:47;;;;;;;4.97;3.27;;;;;;;;;;4998944;28;20179;-80
2022/11/25 09:25:12;;;;;;;8.33;3.63;;;;;;;;;;4993925;28;20183;-80
2022/11/25 09:27:37;;;;;;;5.83;2.70;;;;;;;;;;4993075;28;20227;-80
2022/11/25 09:30:02;;;;;;;7.13;2.97;;;;;;;;;;5014047;23;20223;-73
2022/11/25 09:32:28;;;;;;;5.50;2.40;;;;;;;;;;5010437;28;20183;-73
2022/11/25 09:34:53;;;;;;;7.00;3.15;;;;;;;;;;5009665;28;20332;-73
2022/11/25 09:37:18;;;;;;;3.58;2.10;;;;;;;;;;5002500;28;20214;-73
2022/11/25 09:39:43;;;;;;;5.40;2.72;;;;;;;;;;5009368;28;20199;-73
2022/11/25 09:48:11;;;;;;;5.95;2.70;;;;;;;;;;5012663;28;20182;-73
2022/11/25 09:50:51;;;;;;;5.63;2.50;;;;;;;;;;5009190;28;20718;-72
2022/11/25 09:53:28;;;;;;;7.18;3.03;;;;;;;;;;4998375;28;20179;-72
2022/11/25 09:55:57;;;;;;;5.72;3.17;;;;;;;;;;5006765;28;20191;-72
2022/11/25 09:58:22;;;;;;;5.32;2.60;;;;;;;;;;5026491;28;20679;-72
2022/11/25 10:00:48;;;;;;;8.90;3.00;;;;;;;;;;5011521;28;20203;-72
2022/11/25 10:03:28;;;;;;;7.20;2.95;;;;;;;;;;5006377;28;20175;-72
2022/11/25 10:06:05;;;;;;;7.95;3.63;;;;;;;;;;5015984;28;20215;-72
2022/11/25 10:08:34;;;;;;;9.55;3.47;;;;;;;;;;5013908;28;20182;-72
2022/11/25 10:11:10;;;;;;;8.68;3.08;;;;;;;;;;5013738;28;20242;-72
2022/11/25 10:13:47;;;;;;;5.50;3.47;;;;;;;;;;5002415;28;20189;-73
2022/11/25 10:16:27;;;;;;;5.95;3.13;;;;;;;;;;5008606;28;20187;-73
2022/11/25 10:18:57;;;;;;;7.28;3.58;;;;;;;;;;5004734;28;20202;-73
2022/11/25 10:21:22;;;;;;;6.18;3.33;;;;;;;;;;5009608;28;20183;-73
2022/11/25 10:23:47;;;;;;;7.78;3.10;;;;;;;;;;5012224;28;20171;-73
2022/11/25 10:26:14;;;;;;;6.35;3.70;;;;;;;;;;5008309;28;20633;-73
2022/11/25 10:28:42;;;;;;;6.60;3.30;;;;;;;;;;5009122;28;20167;-73
2022/11/25 10:31:15;;;;;;;8.88;3.42;;;;;;;;;;5015044;28;20398;-74
2022/11/25 10:33:44;;;;;;;6.75;2.88;;;;;;;;;;5012257;28;20209;-74
2022/11/25 10:36:14;;;;;;;7.47;3.67;;;;;;;;;;5011688;28;20183;-73
2022/11/25 10:38:45;;;;;;;9.77;3.97;;;;;;;;;;5013737;28;20268;-73
2022/11/25 10:41:14;;;;;;;7.15;3.65;;;;;;;;;;5008730;28;20253;-73
2022/11/25 10:43:40;;;;;;;5.95;3.10;;;;;;;;;;5011548;28;20175;-74
2022/11/25 10:46:23;;;;;;;4.20;2.45;;;;;;;;;;5015118;28;20245;-73
2022/11/25 10:48:57;;;;;;;6.88;3.00;;;;;;;;;;5011084;28;20653;-73
2022/11/25 10:51:35;;;;;;;12.88;3.92;;;;;;;;;;5009494;28;20205;-72
2022/11/25 10:54:12;;;;;;;8.35;3.03;;;;;;;;;;5011361;28;20213;-72
2022/11/25 10:56:52;;;;;;;6.95;2.90;;;;;;;;;;4999106;28;20190;-73
2022/11/25 10:59:31;;;;;;;7.07;3.83;;;;;;;;;;5008169;28;20557;-72
2022/11/25 11:02:11;;;;;;;4.55;2.40;;;;;;;;;;5005869;28;20186;-72
2022/11/25 11:04:47;;;;;;;7.75;3.63;;;;;;;;;;5008981;28;20186;-71
2022/11/25 11:07:12;;;;;;;6.97;3.17;;;;;;;;;;5011457;28;20182;-72
2022/11/25 11:09:41;;;;;;;6.70;2.53;;;;;;;;;;5011456;28;20202;-74
2022/11/25 11:12:13;;;;;;;5.82;2.88;;;;;;;;;;5005242;28;20577;-74
2022/11/25 11:14:38;;;;;;;5.57;2.97;;;;;;;;;;5007353;28;20241;-72
2022/11/25 11:17:03;;;;;;;7.57;2.65;;;;;;;;;;5010352;28;20651;-73
2022/11/25 11:19:29;;;;;;;5.50;2.50;;;;;;;;;;5010337;28;20207;-72
2022/11/25 11:21:55;;;;;;;8.02;3.03;;;;;;;;;;5007711;28;20210;-72
2022/11/25 11:24:28;;;;;;;4.35;2.20;;;;;;;;;;5009999;28;20615;-72
2022/11/25 11:27:03;;;;;;;5.38;2.53;;;;;;;;;;5008000;28;20183;-72
2022/11/25 11:29:28;;;;;;;7.32;2.72;;;;;;;;;;5000219;28;20217;-72
2022/11/25 11:31:57;;;;;;;7.53;3.03;;;;;;;;;;5007653;28;20182;-73
2022/11/25 11:34:38;;;;;;;9.63;1.83;;;;;;;;;;5015420;28;20189;-72
2022/11/25 11:37:28;;;;;;;10.85;2.40;;;;;;;;;;5010484;28;20212;-72
2022/11/25 11:39:58;;;;;;;4.55;2.30;;;;;;;;;;5009306;28;20337;-73
2022/11/25 11:42:36;;;;;;;9.90;2.08;;;;;;;;;;5006687;28;20258;-72
2022/11/25 11:45:12;;;;;;;3.83;1.48;;;;;;;;;;5009180;28;20189;-72
2022/11/25 11:47:40;;;;;;;8.05;1.90;;;;;;;;;;5010178;28;20198;-73
2022/11/25 11:50:18;;;;;;;10.35;2.08;;;;;;;;;;5009713;28;20246;-72
2022/11/25 11:52:58;;;;;;;6.80;1.60;;;;;;;;;;5003782;28;20182;-73
2022/11/25 11:55:35;;;;;;;5.75;1.52;;;;;;;;;;5010173;28;20183;-72
2022/11/25 11:58:12;;;;;;;5.50;1.50;;;;;;;;;;5007368;28;20672;-73
2022/11/25 12:00:53;;;;;;;7.85;2.10;;;;;;;;;;5010016;28;20364;-73
2022/11/25 12:03:20;;;;;;;7.75;2.00;;;;;;;;;;5006823;28;20217;-73
2022/11/25 12:05:46;;;;;;;5.60;1.48;;;;;;;;;;5007817;28;20190;-72
2022/11/25 12:08:11;;;;;;;7.95;2.50;;;;;;;;;;5010888;28;20171;-72
2022/11/25 12:10:49;;;;;;;3.43;1.53;;;;;;;;;;5008638;28;20325;-72
2022/11/25 12:13:17;;;;;;;11.02;2.70;;;;;;;;;;5009046;28;20415;-73
2022/11/25 12:16:01;;;;;;;9.55;2.13;;;;;;;;;;5014095;28;20195;-73
2022/11/25 12:18:26;;;;;;;10.52;1.88;;;;;;;;;;5013050;28;20225;-72
2022/11/25 12:20:56;;;;;;;5.82;1.70;;;;;;;;;;5014460;28;20250;-73
2022/11/25 12:23:39;;;;;;;7.68;1.92;;;;;;;;;;5016129;28;20186;-72
2022/11/25 12:26:08;;;;;;;13.57;1.73;;;;;;;;;;5012897;28;20273;-72
2022/11/25 12:28:37;;;;;;;9.50;1.83;;;;;;;;;;5021967;28;20222;-72
2022/11/25 12:31:10;;;;;;;10.98;1.75;;;;;;;;;;5016144;28;20248;-72
2022/11/25 12:33:54;;;;;;;6.78;2.50;;;;;;;;;;5011131;28;20199;-72
2022/11/25 12:36:39;;;;;;;5.53;1.73;;;;;;;;;;5012459;28;20202;-72
2022/11/25 12:39:14;;;;;;;8.07;2.13;;;;;;;;;;5015313;28;20207;-72
2022/11/25 12:41:43;;;;;;;4.05;2.17;;;;;;;;;;5016121;28;20202;-72
2022/11/25 12:44:09;;;;;;;7.03;1.83;;;;;;;;;;5012843;28;20665;-72
2022/11/25 12:46:37;;;;;;;4.90;2.03;;;;;;;;;;5012713;28;20194;-72
2022/11/25 12:49:05;;;;;;;3.85;1.58;;;;;;;;;;5012875;28;20281;-72
2022/11/25 12:51:48;;;;;;;7.50;1.80;;;;;;;;;;5013169;28;20183;-72
2022/11/25 12:54:23;;;;;;;7.57;2.83;;;;;;;;;;5014064;28;20273;-73
2022/11/25 12:56:53;;;;;;;3.60;1.40;;;;;;;;;;5008511;28;20183;-72
2022/11/25 12:59:25;;;;;;;6.78;2.38;;;;;;;;;;5010655;28;20604;-72
2022/11/25 13:02:00;;;;;;;6.68;1.80;;;;;;;;;;5011632;28;20230;-73
2022/11/25 13:04:43;;;;;;;5.53;1.60;;;;;;;;;;5013213;28;20254;-72
2022/11/25 13:07:08;;;;;;;8.18;2.20;;;;;;;;;;5011134;28;20183;-72
2022/11/25 13:09:53;;;;;;;14.18;2.88;;;;;;;;;;5009721;28;20322;-72
2022/11/25 13:12:27;;;;;;;10.63;2.58;;;;;;;;;;5009718;28;20186;-72
2022/11/25 13:15:01;;;;;;;9.23;2.55;;;;;;;;;;5010923;28;20261;-72
2022/11/25 13:17:28;;;;;;;7.22;1.88;;;;;;;;;;5013046;28;20602;-72
2022/11/25 13:20:19;;;;;;;8.25;2.05;;;;;;;;;;5010299;28;20203;-72
2022/11/25 13:22:59;;;;;;;10.10;2.00;;;;;;;;;;4979083;28;20194;-73
2022/11/25 13:25:25;;;;;;;6.80;2.42;;;;;;;;;;5007142;28;20191;-72
2022/11/25 13:27:53;;;;;;;11.05;2.55;;;;;;;;;;5012847;28;20686;-72
2022/11/25 13:30:33;;;;;;;18.38;4.10;;;;;;;;;;5010151;28;20219;-72
2022/11/25 13:33:10;;;;;;;8.43;1.98;;;;;;;;;;5013722;28;20187;-72
2022/11/25 13:35:47;;;;;;;9.07;3.25;;;;;;;;;;5010103;28;20198;-73
2022/11/25 13:38:31;;;;;;;12.63;3.72;;;;;;;;;;5007052;28;20194;-72
2022/11/25 13:41:03;;;;;;;9.57;2.22;;;;;;;;;;4999469;28;20210;-72
2022/11/25 13:43:28;;;;;;;8.38;1.67;;;;;;;;;;5011245;28;20190;-72
2022/11/25 13:45:54;;;;;;;8.18;1.67;;;;;;;;;;5014074;28;20565;-72
2022/11/25 13:48:22;;;;;;;13.32;4.18;;;;;;;;;;5013175;28;20187;-72
2022/11/25 13:50:48;;;;;;;10.35;2.33;;;;;;;;;;5009029;28;20202;-73
2022/11/25 13:53:21;;;;;;;4.20;1.50;;;;;;;;;;5013199;28;20178;-72
2022/11/25 13:55:49;;;;;;;8.20;1.80;;;;;;;;;;5010493;28;20214;-72
2022/11/25 13:58:21;;;;;;;9.05;2.17;;;;;;;;;;5008110;28;20187;-72
2022/11/25 14:00:49;;;;;;;6.80;2.03;;;;;;;;;;5011408;28;20210;-72
2022/11/25 14:03:17;;;;;;;8.55;2.25;;;;;;;;;;5015904;28;20567;-73
2022/11/25 14:06:01;;;;;;;5.35;2.03;;;;;;;;;;5012201;28;20174;-72
2022/11/25 14:08:43;;;;;;;11.40;2.90;;;;;;;;;;5010147;28;20273;-72
2022/11/25 14:11:08;;;;;;;7.22;2.63;;;;;;;;;;5010376;28;20606;-72
2022/11/25 14:13:52;;;;;;;8.83;2.47;;;;;;;;;;5008187;28;20205;-72
2022/11/25 14:16:20;;;;;;;8.48;2.05;;;;;;;;;;5006907;28;20440;-72
2022/11/25 14:19:05;;;;;;;8.52;2.10;;;;;;;;;;5009204;28;20727;-72
2022/11/25 14:21:49;;;;;;;10.77;2.88;;;;;;;;;;5007758;28;20226;-72
2022/11/25 14:24:34;;;;;;;13.13;3.20;;;;;;;;;;5011621;28;20175;-72
2022/11/25 14:27:00;;;;;;;7.93;2.60;;;;;;;;;;5006567;28;20236;-72
2022/11/25 14:29:25;;;;;;;11.73;2.60;;;;;;;;;;5007937;28;20752;-72
2022/11/25 14:31:52;;;;;;;8.77;2.77;;;;;;;;;;5013816;28;20175;-71
2022/11/25 14:34:26;;;;;;;8.43;2.20;;;;;;;;;;5012312;28;20416;-72
2022/11/25 14:37:11;;;;;;;11.95;3.88;;;;;;;;;;5011507;28;20217;-72
2022/11/25 14:39:41;;;;;;;10.60;2.58;;;;;;;;;;5008979;28;20207;-72
2022/11/25 14:42:11;;;;;;;9.60;2.70;;;;;;;;;;5010108;28;20268;-72
2022/11/25 14:44:46;;;;;;;9.43;2.33;;;;;;;;;;5011037;28;20186;-72
2022/11/25 14:47:11;;;;;;;8.65;2.72;;;;;;;;;;5008241;28;20201;-72
2022/11/25 14:49:45;;;;;;;10.35;2.40;;;;;;;;;;5010610;28;20199;-72
2022/11/25 14:52:25;;;;;;;5.97;2.17;;;;;;;;;;5009478;28;20236;-72
2022/11/25 14:54:51;;;;;;;11.93;4.15;;;;;;;;;;5004140;28;20171;-72